sensor_id;sensor_type;location;lat;lon;timestamp;temperature;humidity
36002;DHT22;22070;50.922;5.430;2022-12-29T00:02:14;11.50;99.90
36002;DHT22;22070;50.922;5.430;2022-12-29T00:04:40;11.50;99.90
36002;DHT22;22070;50.922;5.430;2022-12-29T00:07:06;11.50;99.90
36002;DHT22;22070;50.922;5.430;2022-12-29T00:09:33;11.50;99.90
36002;DHT22;22070;50.922;5.430;2022-12-29T00:12:00;11.60;99.90
36002;DHT22;22070;50.922;5.430;2022-12-29T00:14:26;11.60;99.90
36002;DHT22;22070;50.922;5.430;2022-12-29T00:17:10;11.60;99.90
36002;DHT22;22070;50.922;5.430;2022-12-29T00:19:36;11.70;99.90
36002;DHT22;22070;50.922;5.430;2022-12-29T00:22:21;11.70;99.90
36002;DHT22;22070;50.922;5.430;2022-12-29T00:25:07;11.80;99.90
36002;DHT22;22070;50.922;5.430;2022-12-29T00:27:52;11.90;99.90
36002;DHT22;22070;50.922;5.430;2022-12-29T00:30:36;11.90;99.90
36002;DHT22;22070;50.922;5.430;2022-12-29T00:33:23;11.90;99.90
36002;DHT22;22070;50.922;5.430;2022-12-29T00:36:18;12.00;99.90
36002;DHT22;22070;50.922;5.430;2022-12-29T00:38:48;12.00;99.90
36002;DHT22;22070;50.922;5.430;2022-12-29T00:41:33;12.10;99.90
36002;DHT22;22070;50.922;5.430;2022-12-29T00:44:18;12.00;99.90
36002;DHT22;22070;50.922;5.430;2022-12-29T00:46:43;12.10;99.90
36002;DHT22;22070;50.922;5.430;2022-12-29T00:49:11;12.20;99.90
36002;DHT22;22070;50.922;5.430;2022-12-29T00:54:28;12.20;99.90
36002;DHT22;22070;50.922;5.430;2022-12-29T00:56:54;12.20;99.90
36002;DHT22;22070;50.922;5.430;2022-12-29T00:59:20;12.20;99.90
36002;DHT22;22070;50.922;5.430;2022-12-29T01:01:47;12.20;99.90
36002;DHT22;22070;50.922;5.430;2022-12-29T01:04:13;12.20;99.90
36002;DHT22;22070;50.922;5.430;2022-12-29T01:06:40;12.20;99.90
36002;DHT22;22070;50.922;5.430;2022-12-29T01:09:06;12.20;99.90
36002;DHT22;22070;50.922;5.430;2022-12-29T01:11:50;12.20;99.90
36002;DHT22;22070;50.922;5.430;2022-12-29T01:14:18;12.20;99.90
36002;DHT22;22070;50.922;5.430;2022-12-29T01:16:44;12.20;99.90
36002;DHT22;22070;50.922;5.430;2022-12-29T01:19:11;12.20;99.90
36002;DHT22;22070;50.922;5.430;2022-12-29T01:21:37;12.20;99.90
36002;DHT22;22070;50.922;5.430;2022-12-29T01:24:03;12.20;99.90
36002;DHT22;22070;50.922;5.430;2022-12-29T01:26:28;12.20;99.90
36002;DHT22;22070;50.922;5.430;2022-12-29T01:28:54;12.10;99.90
36002;DHT22;22070;50.922;5.430;2022-12-29T01:31:19;12.20;99.90
36002;DHT22;22070;50.922;5.430;2022-12-29T01:33:45;12.20;99.90
36002;DHT22;22070;50.922;5.430;2022-12-29T01:36:13;12.10;99.90
36002;DHT22;22070;50.922;5.430;2022-12-29T01:38:40;12.20;99.90
36002;DHT22;22070;50.922;5.430;2022-12-29T01:41:08;12.20;99.90
36002;DHT22;22070;50.922;5.430;2022-12-29T01:43:52;12.20;99.90
36002;DHT22;22070;50.922;5.430;2022-12-29T01:51:52;12.20;99.90
36002;DHT22;22070;50.922;5.430;2022-12-29T01:54:32;12.30;99.90
36002;DHT22;22070;50.922;5.430;2022-12-29T01:57:02;12.30;99.90
36002;DHT22;22070;50.922;5.430;2022-12-29T01:59:32;12.30;99.90
36002;DHT22;22070;50.922;5.430;2022-12-29T02:02:00;12.30;99.90
36002;DHT22;22070;50.922;5.430;2022-12-29T02:04:27;12.30;99.90
36002;DHT22;22070;50.922;5.430;2022-12-29T02:06:58;12.40;99.90
36002;DHT22;22070;50.922;5.430;2022-12-29T02:09:26;12.30;99.90
36002;DHT22;22070;50.922;5.430;2022-12-29T02:11:52;12.20;99.90
36002;DHT22;22070;50.922;5.430;2022-12-29T02:14:18;12.20;99.90
36002;DHT22;22070;50.922;5.430;2022-12-29T02:17:08;12.20;99.90
36002;DHT22;22070;50.922;5.430;2022-12-29T02:20:23;12.10;99.90
36002;DHT22;22070;50.922;5.430;2022-12-29T02:23:19;12.10;99.90
36002;DHT22;22070;50.922;5.430;2022-12-29T02:31:15;12.00;99.90
36002;DHT22;22070;50.922;5.430;2022-12-29T02:33:55;12.00;99.90
36002;DHT22;22070;50.922;5.430;2022-12-29T02:44:59;12.00;99.90
36002;DHT22;22070;50.922;5.430;2022-12-29T02:47:49;12.00;99.90
36002;DHT22;22070;50.922;5.430;2022-12-29T02:50:27;11.90;99.90
36002;DHT22;22070;50.922;5.430;2022-12-29T02:53:05;11.90;99.90
36002;DHT22;22070;50.922;5.430;2022-12-29T02:55:31;11.90;99.90
36002;DHT22;22070;50.922;5.430;2022-12-29T02:58:21;12.00;99.90
36002;DHT22;22070;50.922;5.430;2022-12-29T03:06:52;11.90;99.90
36002;DHT22;22070;50.922;5.430;2022-12-29T03:12:46;12.00;99.90
36002;DHT22;22070;50.922;5.430;2022-12-29T03:15:58;12.00;99.90
36002;DHT22;22070;50.922;5.430;2022-12-29T03:18:45;12.20;99.90
36002;DHT22;22070;50.922;5.430;2022-12-29T03:21:14;12.10;99.90
36002;DHT22;22070;50.922;5.430;2022-12-29T03:23:43;12.10;99.90
36002;DHT22;22070;50.922;5.430;2022-12-29T03:26:14;12.00;99.90
36002;DHT22;22070;50.922;5.430;2022-12-29T03:28:46;12.00;99.90
36002;DHT22;22070;50.922;5.430;2022-12-29T03:31:13;12.00;99.90
36002;DHT22;22070;50.922;5.430;2022-12-29T03:33:41;12.00;99.90
36002;DHT22;22070;50.922;5.430;2022-12-29T03:36:12;12.00;99.90
36002;DHT22;22070;50.922;5.430;2022-12-29T03:38:49;12.10;99.90
36002;DHT22;22070;50.922;5.430;2022-12-29T03:41:20;12.10;99.90
36002;DHT22;22070;50.922;5.430;2022-12-29T03:43:47;12.20;99.90
36002;DHT22;22070;50.922;5.430;2022-12-29T03:46:13;12.10;99.90
36002;DHT22;22070;50.922;5.430;2022-12-29T03:48:38;12.00;99.90
36002;DHT22;22070;50.922;5.430;2022-12-29T03:51:04;12.00;99.90
36002;DHT22;22070;50.922;5.430;2022-12-29T03:53:30;12.10;99.90
36002;DHT22;22070;50.922;5.430;2022-12-29T03:55:55;12.20;99.90
36002;DHT22;22070;50.922;5.430;2022-12-29T03:58:21;12.20;99.90
36002;DHT22;22070;50.922;5.430;2022-12-29T04:00:47;12.10;99.90
36002;DHT22;22070;50.922;5.430;2022-12-29T04:03:12;12.10;99.90
36002;DHT22;22070;50.922;5.430;2022-12-29T04:05:38;12.10;99.90
36002;DHT22;22070;50.922;5.430;2022-12-29T04:08:04;12.10;99.90
36002;DHT22;22070;50.922;5.430;2022-12-29T04:10:29;12.20;99.90
36002;DHT22;22070;50.922;5.430;2022-12-29T04:12:55;12.20;99.90
36002;DHT22;22070;50.922;5.430;2022-12-29T04:15:21;12.10;99.90
36002;DHT22;22070;50.922;5.430;2022-12-29T04:17:47;12.10;99.90
36002;DHT22;22070;50.922;5.430;2022-12-29T04:20:12;12.00;99.90
36002;DHT22;22070;50.922;5.430;2022-12-29T04:23:05;12.00;99.90
36002;DHT22;22070;50.922;5.430;2022-12-29T04:25:31;12.00;99.90
36002;DHT22;22070;50.922;5.430;2022-12-29T04:27:58;11.90;99.90
36002;DHT22;22070;50.922;5.430;2022-12-29T04:30:24;11.70;99.90
36002;DHT22;22070;50.922;5.430;2022-12-29T04:32:49;11.50;99.90
36002;DHT22;22070;50.922;5.430;2022-12-29T04:35:15;11.40;99.90
36002;DHT22;22070;50.922;5.430;2022-12-29T04:37:41;11.30;99.90
36002;DHT22;22070;50.922;5.430;2022-12-29T04:40:07;11.20;99.90
36002;DHT22;22070;50.922;5.430;2022-12-29T04:42:33;11.20;99.90
36002;DHT22;22070;50.922;5.430;2022-12-29T04:44:58;11.20;99.90
36002;DHT22;22070;50.922;5.430;2022-12-29T04:47:24;11.20;99.90
36002;DHT22;22070;50.922;5.430;2022-12-29T04:49:50;11.20;99.90
36002;DHT22;22070;50.922;5.430;2022-12-29T04:52:15;11.20;99.90
36002;DHT22;22070;50.922;5.430;2022-12-29T04:54:41;11.20;99.90
36002;DHT22;22070;50.922;5.430;2022-12-29T04:57:07;11.20;99.90
36002;DHT22;22070;50.922;5.430;2022-12-29T04:59:32;11.30;99.90
36002;DHT22;22070;50.922;5.430;2022-12-29T05:01:58;11.30;99.90
36002;DHT22;22070;50.922;5.430;2022-12-29T05:04:23;11.30;99.90
36002;DHT22;22070;50.922;5.430;2022-12-29T05:06:49;11.30;99.90
36002;DHT22;22070;50.922;5.430;2022-12-29T05:09:15;11.40;99.90
36002;DHT22;22070;50.922;5.430;2022-12-29T05:11:40;11.40;99.90
36002;DHT22;22070;50.922;5.430;2022-12-29T05:14:06;11.40;99.90
36002;DHT22;22070;50.922;5.430;2022-12-29T05:16:32;11.40;99.90
36002;DHT22;22070;50.922;5.430;2022-12-29T05:18:57;11.50;99.90
36002;DHT22;22070;50.922;5.430;2022-12-29T05:21:23;11.50;99.90
36002;DHT22;22070;50.922;5.430;2022-12-29T05:23:49;11.60;99.90
36002;DHT22;22070;50.922;5.430;2022-12-29T05:26:14;11.60;99.90
36002;DHT22;22070;50.922;5.430;2022-12-29T05:28:40;11.60;99.90
36002;DHT22;22070;50.922;5.430;2022-12-29T05:31:06;11.60;99.90
36002;DHT22;22070;50.922;5.430;2022-12-29T05:33:31;11.70;99.90
36002;DHT22;22070;50.922;5.430;2022-12-29T05:35:57;11.70;99.90
36002;DHT22;22070;50.922;5.430;2022-12-29T05:38:28;11.70;99.90
36002;DHT22;22070;50.922;5.430;2022-12-29T05:40:54;11.70;99.90
36002;DHT22;22070;50.922;5.430;2022-12-29T05:43:19;11.70;99.90
36002;DHT22;22070;50.922;5.430;2022-12-29T05:45:48;11.70;99.90
36002;DHT22;22070;50.922;5.430;2022-12-29T05:48:14;11.70;99.90
36002;DHT22;22070;50.922;5.430;2022-12-29T05:50:39;11.80;99.90
36002;DHT22;22070;50.922;5.430;2022-12-29T05:53:05;11.80;99.90
36002;DHT22;22070;50.922;5.430;2022-12-29T05:55:31;11.80;99.90
36002;DHT22;22070;50.922;5.430;2022-12-29T05:57:57;11.90;99.90
36002;DHT22;22070;50.922;5.430;2022-12-29T06:00:23;11.80;99.90
36002;DHT22;22070;50.922;5.430;2022-12-29T06:02:49;11.80;99.90
36002;DHT22;22070;50.922;5.430;2022-12-29T06:05:15;11.80;99.90
36002;DHT22;22070;50.922;5.430;2022-12-29T06:07:40;11.80;99.90
36002;DHT22;22070;50.922;5.430;2022-12-29T06:10:06;11.80;99.90
36002;DHT22;22070;50.922;5.430;2022-12-29T06:12:32;11.70;99.90
36002;DHT22;22070;50.922;5.430;2022-12-29T06:14:58;11.70;99.90
36002;DHT22;22070;50.922;5.430;2022-12-29T06:17:23;11.70;99.90
36002;DHT22;22070;50.922;5.430;2022-12-29T06:19:49;11.60;99.90
36002;DHT22;22070;50.922;5.430;2022-12-29T06:22:15;11.70;99.90
36002;DHT22;22070;50.922;5.430;2022-12-29T06:24:41;11.70;99.90
36002;DHT22;22070;50.922;5.430;2022-12-29T06:27:06;11.70;99.90
36002;DHT22;22070;50.922;5.430;2022-12-29T06:29:32;11.60;99.90
36002;DHT22;22070;50.922;5.430;2022-12-29T06:31:58;11.60;99.90
36002;DHT22;22070;50.922;5.430;2022-12-29T06:34:24;11.60;99.90
36002;DHT22;22070;50.922;5.430;2022-12-29T06:36:50;11.60;99.90
36002;DHT22;22070;50.922;5.430;2022-12-29T06:39:16;11.50;99.90
36002;DHT22;22070;50.922;5.430;2022-12-29T06:41:42;11.50;99.90
36002;DHT22;22070;50.922;5.430;2022-12-29T06:44:07;11.50;99.90
36002;DHT22;22070;50.922;5.430;2022-12-29T06:46:33;11.50;99.90
36002;DHT22;22070;50.922;5.430;2022-12-29T06:48:59;11.40;99.90
36002;DHT22;22070;50.922;5.430;2022-12-29T06:51:24;11.40;99.90
36002;DHT22;22070;50.922;5.430;2022-12-29T06:53:50;11.40;99.90
36002;DHT22;22070;50.922;5.430;2022-12-29T06:56:16;11.40;99.90
36002;DHT22;22070;50.922;5.430;2022-12-29T06:58:41;11.40;99.90
36002;DHT22;22070;50.922;5.430;2022-12-29T07:01:07;11.30;99.90
36002;DHT22;22070;50.922;5.430;2022-12-29T07:03:35;11.30;99.90
36002;DHT22;22070;50.922;5.430;2022-12-29T07:06:01;11.30;99.90
36002;DHT22;22070;50.922;5.430;2022-12-29T07:08:26;11.30;99.90
36002;DHT22;22070;50.922;5.430;2022-12-29T07:10:52;11.30;99.90
36002;DHT22;22070;50.922;5.430;2022-12-29T07:13:18;11.40;99.90
36002;DHT22;22070;50.922;5.430;2022-12-29T07:15:44;11.40;99.90
36002;DHT22;22070;50.922;5.430;2022-12-29T07:18:09;11.40;99.90
36002;DHT22;22070;50.922;5.430;2022-12-29T07:20:35;11.40;99.90
36002;DHT22;22070;50.922;5.430;2022-12-29T07:23:02;11.40;99.90
36002;DHT22;22070;50.922;5.430;2022-12-29T07:25:27;11.40;99.90
36002;DHT22;22070;50.922;5.430;2022-12-29T07:27:54;11.30;99.90
36002;DHT22;22070;50.922;5.430;2022-12-29T07:30:20;11.30;99.90
36002;DHT22;22070;50.922;5.430;2022-12-29T07:32:46;11.30;99.90
36002;DHT22;22070;50.922;5.430;2022-12-29T07:35:11;11.30;99.90
36002;DHT22;22070;50.922;5.430;2022-12-29T07:37:37;11.20;99.90
36002;DHT22;22070;50.922;5.430;2022-12-29T07:40:03;11.10;99.90
36002;DHT22;22070;50.922;5.430;2022-12-29T07:42:32;11.00;99.90
36002;DHT22;22070;50.922;5.430;2022-12-29T07:44:58;11.00;99.90
36002;DHT22;22070;50.922;5.430;2022-12-29T07:47:24;10.90;99.90
36002;DHT22;22070;50.922;5.430;2022-12-29T07:49:50;10.90;99.90
36002;DHT22;22070;50.922;5.430;2022-12-29T07:52:16;10.90;99.90
36002;DHT22;22070;50.922;5.430;2022-12-29T07:54:41;10.90;99.90
36002;DHT22;22070;50.922;5.430;2022-12-29T07:57:07;11.00;99.90
36002;DHT22;22070;50.922;5.430;2022-12-29T07:59:32;11.00;99.90
36002;DHT22;22070;50.922;5.430;2022-12-29T08:01:58;11.00;99.90
36002;DHT22;22070;50.922;5.430;2022-12-29T08:04:24;11.00;99.90
36002;DHT22;22070;50.922;5.430;2022-12-29T08:06:50;10.90;99.90
36002;DHT22;22070;50.922;5.430;2022-12-29T08:09:15;11.00;99.90
36002;DHT22;22070;50.922;5.430;2022-12-29T08:11:41;10.90;99.90
36002;DHT22;22070;50.922;5.430;2022-12-29T08:14:08;11.00;99.90
36002;DHT22;22070;50.922;5.430;2022-12-29T08:16:34;11.00;99.90
36002;DHT22;22070;50.922;5.430;2022-12-29T08:18:59;11.00;99.90
36002;DHT22;22070;50.922;5.430;2022-12-29T08:21:27;10.90;99.90
36002;DHT22;22070;50.922;5.430;2022-12-29T08:23:53;11.00;99.90
36002;DHT22;22070;50.922;5.430;2022-12-29T08:26:18;11.00;99.90
36002;DHT22;22070;50.922;5.430;2022-12-29T08:28:44;11.10;99.90
36002;DHT22;22070;50.922;5.430;2022-12-29T08:31:10;11.10;99.90
36002;DHT22;22070;50.922;5.430;2022-12-29T08:33:35;11.10;99.90
36002;DHT22;22070;50.922;5.430;2022-12-29T08:36:03;11.10;99.90
36002;DHT22;22070;50.922;5.430;2022-12-29T08:38:29;11.10;99.90
36002;DHT22;22070;50.922;5.430;2022-12-29T08:40:55;11.10;99.90
36002;DHT22;22070;50.922;5.430;2022-12-29T08:43:21;11.10;99.90
36002;DHT22;22070;50.922;5.430;2022-12-29T08:45:47;11.10;99.90
36002;DHT22;22070;50.922;5.430;2022-12-29T08:48:12;11.20;99.90
36002;DHT22;22070;50.922;5.430;2022-12-29T08:50:38;11.20;99.90
36002;DHT22;22070;50.922;5.430;2022-12-29T08:53:04;11.30;99.90
36002;DHT22;22070;50.922;5.430;2022-12-29T08:55:29;11.30;99.90
36002;DHT22;22070;50.922;5.430;2022-12-29T08:57:55;11.30;99.90
36002;DHT22;22070;50.922;5.430;2022-12-29T09:00:21;11.30;99.90
36002;DHT22;22070;50.922;5.430;2022-12-29T09:02:47;11.30;99.90
36002;DHT22;22070;50.922;5.430;2022-12-29T09:05:12;11.30;99.90
36002;DHT22;22070;50.922;5.430;2022-12-29T09:07:38;11.20;99.90
36002;DHT22;22070;50.922;5.430;2022-12-29T09:10:04;11.20;99.90
36002;DHT22;22070;50.922;5.430;2022-12-29T09:12:30;11.10;99.90
36002;DHT22;22070;50.922;5.430;2022-12-29T09:14:56;11.10;99.90
36002;DHT22;22070;50.922;5.430;2022-12-29T09:17:21;11.10;99.90
36002;DHT22;22070;50.922;5.430;2022-12-29T09:20:06;11.10;99.90
36002;DHT22;22070;50.922;5.430;2022-12-29T09:22:32;11.20;99.90
36002;DHT22;22070;50.922;5.430;2022-12-29T09:24:57;11.10;99.90
36002;DHT22;22070;50.922;5.430;2022-12-29T09:27:23;11.10;99.90
36002;DHT22;22070;50.922;5.430;2022-12-29T09:29:49;11.00;99.90
36002;DHT22;22070;50.922;5.430;2022-12-29T09:32:14;11.00;99.90
36002;DHT22;22070;50.922;5.430;2022-12-29T09:34:40;11.00;99.90
36002;DHT22;22070;50.922;5.430;2022-12-29T09:37:06;11.00;99.90
36002;DHT22;22070;50.922;5.430;2022-12-29T09:39:31;11.10;99.90
36002;DHT22;22070;50.922;5.430;2022-12-29T09:47:14;11.10;99.90
36002;DHT22;22070;50.922;5.430;2022-12-29T09:49:47;11.00;99.90
36002;DHT22;22070;50.922;5.430;2022-12-29T09:52:25;11.10;99.90
36002;DHT22;22070;50.922;5.430;2022-12-29T09:55:15;11.10;99.90
36002;DHT22;22070;50.922;5.430;2022-12-29T09:57:47;11.10;99.90
36002;DHT22;22070;50.922;5.430;2022-12-29T10:00:16;11.10;99.90
36002;DHT22;22070;50.922;5.430;2022-12-29T10:02:46;11.10;99.90
36002;DHT22;22070;50.922;5.430;2022-12-29T10:08:09;11.10;99.90
36002;DHT22;22070;50.922;5.430;2022-12-29T10:10:59;11.10;99.90
36002;DHT22;22070;50.922;5.430;2022-12-29T10:14:07;11.10;99.90
36002;DHT22;22070;50.922;5.430;2022-12-29T10:16:39;11.10;99.90
36002;DHT22;22070;50.922;5.430;2022-12-29T10:19:37;11.10;99.90
36002;DHT22;22070;50.922;5.430;2022-12-29T10:24:51;11.20;99.90
36002;DHT22;22070;50.922;5.430;2022-12-29T10:27:19;11.10;99.90
36002;DHT22;22070;50.922;5.430;2022-12-29T10:29:54;11.10;99.90
36002;DHT22;22070;50.922;5.430;2022-12-29T10:34:58;11.20;99.90
36002;DHT22;22070;50.922;5.430;2022-12-29T10:45:48;11.30;99.90
36002;DHT22;22070;50.922;5.430;2022-12-29T10:48:47;11.30;99.90
36002;DHT22;22070;50.922;5.430;2022-12-29T10:51:26;11.30;99.90
36002;DHT22;22070;50.922;5.430;2022-12-29T10:54:03;11.50;99.90
36002;DHT22;22070;50.922;5.430;2022-12-29T10:56:43;11.50;99.90
36002;DHT22;22070;50.922;5.430;2022-12-29T10:59:22;11.60;99.90
36002;DHT22;22070;50.922;5.430;2022-12-29T11:07:24;11.60;99.90
36002;DHT22;22070;50.922;5.430;2022-12-29T11:09:51;11.60;99.90
36002;DHT22;22070;50.922;5.430;2022-12-29T11:12:28;11.60;99.90
36002;DHT22;22070;50.922;5.430;2022-12-29T11:17:43;11.70;99.90
36002;DHT22;22070;50.922;5.430;2022-12-29T11:20:31;11.70;99.90
36002;DHT22;22070;50.922;5.430;2022-12-29T11:22:57;11.70;99.90
36002;DHT22;22070;50.922;5.430;2022-12-29T11:25:23;11.70;99.90
36002;DHT22;22070;50.922;5.430;2022-12-29T11:27:57;11.60;99.90
36002;DHT22;22070;50.922;5.430;2022-12-29T11:30:26;11.70;99.90
36002;DHT22;22070;50.922;5.430;2022-12-29T11:32:54;11.70;99.90
36002;DHT22;22070;50.922;5.430;2022-12-29T11:35:35;11.70;99.90
36002;DHT22;22070;50.922;5.430;2022-12-29T11:38:02;11.80;99.90
36002;DHT22;22070;50.922;5.430;2022-12-29T11:40:28;11.80;99.90
36002;DHT22;22070;50.922;5.430;2022-12-29T11:45:26;11.70;99.90
36002;DHT22;22070;50.922;5.430;2022-12-29T11:48:04;11.80;99.90
36002;DHT22;22070;50.922;5.430;2022-12-29T11:50:33;11.80;99.90
36002;DHT22;22070;50.922;5.430;2022-12-29T11:53:05;11.70;99.90
36002;DHT22;22070;50.922;5.430;2022-12-29T11:55:32;11.70;99.90
36002;DHT22;22070;50.922;5.430;2022-12-29T11:58:01;11.70;99.90
36002;DHT22;22070;50.922;5.430;2022-12-29T12:00:29;11.70;99.90
36002;DHT22;22070;50.922;5.430;2022-12-29T12:03:04;11.70;99.90
36002;DHT22;22070;50.922;5.430;2022-12-29T12:06:02;11.60;99.90
36002;DHT22;22070;50.922;5.430;2022-12-29T12:08:38;11.60;99.90
36002;DHT22;22070;50.922;5.430;2022-12-29T12:11:10;11.60;99.90
36002;DHT22;22070;50.922;5.430;2022-12-29T12:14:20;11.60;99.90
36002;DHT22;22070;50.922;5.430;2022-12-29T12:16:40;11.60;99.90
36002;DHT22;22070;50.922;5.430;2022-12-29T12:19:40;11.50;99.90
36002;DHT22;22070;50.922;5.430;2022-12-29T12:24:52;11.70;99.90
36002;DHT22;22070;50.922;5.430;2022-12-29T12:27:28;11.70;99.90
36002;DHT22;22070;50.922;5.430;2022-12-29T12:30:16;11.80;99.90
36002;DHT22;22070;50.922;5.430;2022-12-29T12:33:02;11.90;99.90
36002;DHT22;22070;50.922;5.430;2022-12-29T12:35:36;11.80;99.90
36002;DHT22;22070;50.922;5.430;2022-12-29T12:44:04;11.80;99.90
36002;DHT22;22070;50.922;5.430;2022-12-29T12:46:42;11.70;99.90
36002;DHT22;22070;50.922;5.430;2022-12-29T12:57:56;11.70;99.90
36002;DHT22;22070;50.922;5.430;2022-12-29T13:00:27;11.70;99.90
36002;DHT22;22070;50.922;5.430;2022-12-29T13:03:03;11.60;99.90
36002;DHT22;22070;50.922;5.430;2022-12-29T13:06:02;11.70;99.90
36002;DHT22;22070;50.922;5.430;2022-12-29T13:11:21;11.70;99.90
36002;DHT22;22070;50.922;5.430;2022-12-29T13:16:57;11.70;99.90
36002;DHT22;22070;50.922;5.430;2022-12-29T13:19:37;11.60;99.90
36002;DHT22;22070;50.922;5.430;2022-12-29T13:22:21;11.50;99.90
36002;DHT22;22070;50.922;5.430;2022-12-29T13:28:04;11.60;99.90
36002;DHT22;22070;50.922;5.430;2022-12-29T13:33:23;11.70;99.90
36002;DHT22;22070;50.922;5.430;2022-12-29T13:36:33;11.70;99.90
36002;DHT22;22070;50.922;5.430;2022-12-29T13:39:08;11.70;99.90
36002;DHT22;22070;50.922;5.430;2022-12-29T13:41:41;11.70;99.90
36002;DHT22;22070;50.922;5.430;2022-12-29T13:44:16;11.60;99.90
36002;DHT22;22070;50.922;5.430;2022-12-29T13:46:44;11.60;99.90
36002;DHT22;22070;50.922;5.430;2022-12-29T13:49:16;11.60;99.90
36002;DHT22;22070;50.922;5.430;2022-12-29T13:52:06;11.50;99.90
36002;DHT22;22070;50.922;5.430;2022-12-29T13:54:44;11.50;99.90
36002;DHT22;22070;50.922;5.430;2022-12-29T13:57:18;11.50;99.90
36002;DHT22;22070;50.922;5.430;2022-12-29T14:04:58;11.40;99.90
36002;DHT22;22070;50.922;5.430;2022-12-29T14:07:25;11.50;99.90
36002;DHT22;22070;50.922;5.430;2022-12-29T14:09:53;11.50;99.90
36002;DHT22;22070;50.922;5.430;2022-12-29T14:12:38;11.50;99.90
36002;DHT22;22070;50.922;5.430;2022-12-29T14:17:39;11.40;99.90
36002;DHT22;22070;50.922;5.430;2022-12-29T14:20:16;11.30;99.90
36002;DHT22;22070;50.922;5.430;2022-12-29T14:22:57;11.30;99.90
36002;DHT22;22070;50.922;5.430;2022-12-29T14:26:00;11.30;99.90
36002;DHT22;22070;50.922;5.430;2022-12-29T14:28:33;11.30;99.90
36002;DHT22;22070;50.922;5.430;2022-12-29T14:31:03;11.10;99.90
36002;DHT22;22070;50.922;5.430;2022-12-29T14:33:31;11.00;99.90
36002;DHT22;22070;50.922;5.430;2022-12-29T14:36:19;11.00;99.90
36002;DHT22;22070;50.922;5.430;2022-12-29T14:38:46;10.90;99.90
36002;DHT22;22070;50.922;5.430;2022-12-29T14:41:38;10.90;99.90
36002;DHT22;22070;50.922;5.430;2022-12-29T14:44:17;10.80;99.90
36002;DHT22;22070;50.922;5.430;2022-12-29T14:49:29;10.80;99.90
36002;DHT22;22070;50.922;5.430;2022-12-29T14:52:17;10.70;99.90
36002;DHT22;22070;50.922;5.430;2022-12-29T14:54:50;10.70;99.90
36002;DHT22;22070;50.922;5.430;2022-12-29T14:59:48;10.70;99.90
36002;DHT22;22070;50.922;5.430;2022-12-29T15:02:22;10.70;99.90
36002;DHT22;22070;50.922;5.430;2022-12-29T15:04:49;10.70;99.90
36002;DHT22;22070;50.922;5.430;2022-12-29T15:07:17;10.70;99.90
36002;DHT22;22070;50.922;5.430;2022-12-29T15:09:53;10.70;99.90
36002;DHT22;22070;50.922;5.430;2022-12-29T15:12:41;10.60;99.90
36002;DHT22;22070;50.922;5.430;2022-12-29T15:15:27;10.60;99.90
36002;DHT22;22070;50.922;5.430;2022-12-29T15:17:56;10.60;99.90
36002;DHT22;22070;50.922;5.430;2022-12-29T15:20:25;10.60;99.90
36002;DHT22;22070;50.922;5.430;2022-12-29T15:23:03;10.60;99.90
36002;DHT22;22070;50.922;5.430;2022-12-29T15:25:30;10.50;99.90
36002;DHT22;22070;50.922;5.430;2022-12-29T15:28:03;10.60;99.90
36002;DHT22;22070;50.922;5.430;2022-12-29T15:30:29;10.50;99.90
36002;DHT22;22070;50.922;5.430;2022-12-29T15:32:54;10.50;99.90
36002;DHT22;22070;50.922;5.430;2022-12-29T15:37:58;10.40;99.90
36002;DHT22;22070;50.922;5.430;2022-12-29T15:40:29;10.40;99.90
36002;DHT22;22070;50.922;5.430;2022-12-29T15:43:18;10.20;99.90
36002;DHT22;22070;50.922;5.430;2022-12-29T15:45:47;10.10;99.90
36002;DHT22;22070;50.922;5.430;2022-12-29T15:48:18;10.00;99.90
36002;DHT22;22070;50.922;5.430;2022-12-29T15:50:45;10.00;99.90
36002;DHT22;22070;50.922;5.430;2022-12-29T15:53:16;9.80;99.90
36002;DHT22;22070;50.922;5.430;2022-12-29T15:55:44;9.80;99.90
36002;DHT22;22070;50.922;5.430;2022-12-29T15:58:22;9.80;99.90
36002;DHT22;22070;50.922;5.430;2022-12-29T16:00:54;9.70;99.90
36002;DHT22;22070;50.922;5.430;2022-12-29T16:03:23;9.70;99.90
36002;DHT22;22070;50.922;5.430;2022-12-29T16:09:05;9.70;99.90
36002;DHT22;22070;50.922;5.430;2022-12-29T16:11:47;9.70;99.90
36002;DHT22;22070;50.922;5.430;2022-12-29T16:14:24;9.70;99.90
36002;DHT22;22070;50.922;5.430;2022-12-29T16:16:50;9.70;99.90
36002;DHT22;22070;50.922;5.430;2022-12-29T16:19:26;9.70;99.90
36002;DHT22;22070;50.922;5.430;2022-12-29T16:21:54;9.80;99.90
36002;DHT22;22070;50.922;5.430;2022-12-29T16:24:23;9.80;99.90
36002;DHT22;22070;50.922;5.430;2022-12-29T16:26:53;9.70;99.90
36002;DHT22;22070;50.922;5.430;2022-12-29T16:29:21;9.70;99.90
36002;DHT22;22070;50.922;5.430;2022-12-29T16:31:55;9.70;99.90
36002;DHT22;22070;50.922;5.430;2022-12-29T16:37:59;9.50;99.90
36002;DHT22;22070;50.922;5.430;2022-12-29T16:39:50;9.50;99.90
36002;DHT22;22070;50.922;5.430;2022-12-29T16:45:38;9.40;99.90
36002;DHT22;22070;50.922;5.430;2022-12-29T16:48:18;9.30;99.90
36002;DHT22;22070;50.922;5.430;2022-12-29T16:50:45;9.20;99.90
36002;DHT22;22070;50.922;5.430;2022-12-29T16:53:24;9.20;99.90
36002;DHT22;22070;50.922;5.430;2022-12-29T16:55:52;9.10;99.90
36002;DHT22;22070;50.922;5.430;2022-12-29T16:58:23;9.20;99.90
36002;DHT22;22070;50.922;5.430;2022-12-29T17:00:49;9.20;99.90
36002;DHT22;22070;50.922;5.430;2022-12-29T17:03:17;9.20;99.90
36002;DHT22;22070;50.922;5.430;2022-12-29T17:05:43;9.10;99.90
36002;DHT22;22070;50.922;5.430;2022-12-29T17:08:18;9.20;99.90
36002;DHT22;22070;50.922;5.430;2022-12-29T17:10:52;9.10;99.90
36002;DHT22;22070;50.922;5.430;2022-12-29T17:13:38;9.00;99.90
36002;DHT22;22070;50.922;5.430;2022-12-29T17:16:05;9.00;99.90
36002;DHT22;22070;50.922;5.430;2022-12-29T17:18:33;9.00;99.90
36002;DHT22;22070;50.922;5.430;2022-12-29T17:20:59;8.90;99.90
36002;DHT22;22070;50.922;5.430;2022-12-29T17:23:25;8.90;99.90
36002;DHT22;22070;50.922;5.430;2022-12-29T17:25:51;8.90;99.90
36002;DHT22;22070;50.922;5.430;2022-12-29T17:28:21;8.90;99.90
36002;DHT22;22070;50.922;5.430;2022-12-29T17:30:48;9.00;99.90
36002;DHT22;22070;50.922;5.430;2022-12-29T17:33:16;8.90;99.90
36002;DHT22;22070;50.922;5.430;2022-12-29T17:35:43;8.90;99.90
36002;DHT22;22070;50.922;5.430;2022-12-29T17:38:21;9.00;99.90
36002;DHT22;22070;50.922;5.430;2022-12-29T17:40:48;9.00;99.90
36002;DHT22;22070;50.922;5.430;2022-12-29T17:43:15;9.10;99.90
36002;DHT22;22070;50.922;5.430;2022-12-29T17:45:41;9.00;99.90
36002;DHT22;22070;50.922;5.430;2022-12-29T17:48:18;9.00;99.90
36002;DHT22;22070;50.922;5.430;2022-12-29T17:50:47;9.00;99.90
36002;DHT22;22070;50.922;5.430;2022-12-29T17:53:16;9.00;99.90
36002;DHT22;22070;50.922;5.430;2022-12-29T17:55:44;9.00;99.90